createdAt,value
2017-09-10T00:01:10.532Z,80.50
2017-09-10T00:03:38.915Z,80.80
2017-09-10T00:06:06.341Z,80.50
2017-09-10T00:08:33.789Z,80.10
2017-09-10T00:11:01.325Z,80.00
2017-09-10T00:13:29.540Z,80.40
2017-09-10T00:15:56.984Z,81.20
2017-09-10T00:18:24.442Z,79.60
2017-09-10T00:20:51.876Z,80.10
2017-09-10T00:23:19.334Z,80.20
2017-09-10T00:25:46.781Z,80.10
2017-09-10T00:28:14.239Z,80.00
2017-09-10T00:30:41.664Z,80.80
2017-09-10T00:33:09.105Z,80.10
2017-09-10T00:35:36.544Z,80.30
2017-09-10T00:38:03.980Z,80.70
2017-09-10T00:40:31.441Z,80.20
2017-09-10T00:42:58.877Z,79.80
2017-09-10T00:45:26.333Z,80.50
2017-09-10T00:47:53.764Z,81.00
2017-09-10T00:50:21.209Z,81.10
2017-09-10T00:52:48.642Z,80.70
2017-09-10T00:55:16.092Z,80.80
2017-09-10T00:57:43.536Z,81.30
2017-09-10T01:00:10.981Z,79.80
2017-09-10T01:02:38.429Z,78.90
2017-09-10T01:05:05.885Z,80.00
2017-09-10T01:07:34.085Z,80.60
2017-09-10T01:10:01.525Z,80.60
2017-09-10T01:12:28.972Z,80.00
2017-09-10T01:14:56.431Z,80.40
2017-09-10T01:17:23.870Z,81.10
2017-09-10T01:19:51.314Z,81.30
2017-09-10T01:22:18.750Z,80.60
2017-09-10T01:24:46.187Z,81.00
2017-09-10T01:27:13.627Z,81.60
2017-09-10T01:29:41.076Z,80.10
2017-09-10T01:32:08.536Z,81.60
2017-09-10T01:34:35.980Z,81.30
2017-09-10T01:37:03.419Z,80.70
2017-09-10T01:39:30.961Z,78.80
2017-09-10T01:41:58.406Z,80.20
2017-09-10T01:44:25.866Z,81.00
2017-09-10T01:46:53.301Z,81.50
2017-09-10T01:49:20.745Z,80.90
2017-09-10T01:51:48.212Z,81.50
2017-09-10T01:54:15.657Z,80.30
2017-09-10T01:56:43.866Z,81.10
2017-09-10T01:59:11.306Z,81.10
2017-09-10T02:01:38.780Z,81.10
2017-09-10T02:04:06.217Z,80.30
2017-09-10T02:06:33.655Z,79.60
2017-09-10T02:09:01.106Z,79.90
2017-09-10T02:11:28.548Z,80.50
2017-09-10T02:13:56.002Z,80.30
2017-09-10T02:16:23.430Z,80.00
2017-09-10T02:18:50.872Z,80.40
2017-09-10T02:21:18.313Z,81.00
2017-09-10T02:23:45.752Z,80.80
2017-09-10T02:26:13.193Z,81.00
2017-09-10T02:28:41.396Z,81.40
2017-09-10T02:31:09.600Z,80.40
2017-09-10T02:33:37.028Z,80.30
2017-09-10T02:36:04.491Z,80.10
2017-09-10T02:38:31.921Z,80.30
2017-09-10T02:40:59.389Z,80.20
2017-09-10T02:43:26.828Z,80.50
2017-09-10T02:45:54.296Z,80.40
2017-09-10T02:48:21.753Z,80.10
2017-09-10T02:50:49.960Z,80.50
2017-09-10T02:53:17.408Z,80.50
2017-09-10T02:55:44.856Z,79.40
2017-09-10T02:58:12.296Z,78.40
2017-09-10T03:00:39.753Z,79.00
2017-09-10T03:03:07.191Z,79.60
2017-09-10T03:05:34.648Z,80.70
2017-09-10T03:08:02.106Z,80.10
2017-09-10T03:10:29.579Z,79.60
2017-09-10T03:12:57.004Z,78.70
2017-09-10T03:15:25.228Z,79.70
2017-09-10T03:17:52.673Z,79.70
2017-09-10T03:20:20.125Z,79.20
2017-09-10T03:22:47.593Z,79.80
2017-09-10T03:25:15.797Z,80.20
2017-09-10T03:27:43.243Z,80.20
2017-09-10T03:30:10.690Z,80.10
2017-09-10T03:32:38.125Z,80.40
2017-09-10T03:35:05.721Z,79.10
2017-09-10T03:37:33.938Z,78.00
2017-09-10T03:40:01.386Z,78.00
2017-09-10T03:42:28.823Z,78.70
2017-09-10T03:44:56.271Z,79.20
2017-09-10T03:47:23.717Z,80.00
2017-09-10T03:49:51.160Z,78.90
2017-09-10T03:52:18.602Z,79.20
2017-09-10T03:54:46.050Z,79.50
2017-09-10T03:57:13.488Z,79.80
2017-09-10T03:59:40.945Z,79.60
2017-09-10T04:02:08.384Z,79.30
2017-09-10T04:04:35.849Z,78.70
2017-09-10T04:07:04.044Z,79.60
2017-09-10T04:09:31.497Z,79.60
2017-09-10T04:11:58.934Z,80.40
2017-09-10T04:14:26.364Z,78.60
2017-09-10T04:16:53.809Z,78.30
2017-09-10T04:19:21.279Z,79.40
2017-09-10T04:21:48.708Z,79.50
2017-09-10T04:24:16.149Z,79.60
2017-09-10T04:26:43.639Z,79.70
2017-09-10T04:29:11.083Z,79.20
2017-09-10T04:31:38.531Z,79.00
2017-09-10T04:34:05.969Z,79.30
2017-09-10T04:36:33.414Z,80.10
2017-09-10T04:39:01.617Z,78.80
2017-09-10T04:41:29.105Z,78.80
2017-09-10T04:43:56.556Z,79.00
2017-09-10T04:46:24.008Z,79.90
2017-09-10T04:48:52.195Z,78.70
2017-09-10T04:51:19.701Z,78.60
2017-09-10T04:53:47.121Z,79.30
2017-09-10T04:56:14.569Z,78.80
2017-09-10T04:58:42.834Z,80.00
2017-09-10T05:01:10.372Z,80.10
2017-09-10T05:03:37.804Z,77.90
2017-09-10T05:06:05.250Z,78.60
2017-09-10T05:08:32.760Z,78.80
2017-09-10T05:11:00.936Z,80.00
2017-09-10T05:13:28.377Z,79.80
2017-09-10T05:15:55.932Z,78.70
2017-09-10T05:18:23.408Z,78.10
2017-09-10T05:20:50.849Z,78.60
2017-09-10T05:23:18.283Z,78.50
2017-09-10T05:25:45.752Z,78.80
2017-09-10T05:28:13.948Z,78.00
2017-09-10T05:30:41.393Z,78.00
2017-09-10T05:33:08.828Z,78.20
2017-09-10T05:35:36.287Z,79.60
2017-09-10T05:38:03.712Z,78.80
2017-09-10T05:40:31.153Z,78.00
2017-09-10T05:42:58.589Z,78.00
2017-09-10T05:45:26.024Z,77.50
2017-09-10T05:47:53.468Z,78.50
2017-09-10T05:50:20.993Z,78.10
2017-09-10T05:52:49.196Z,77.30
2017-09-10T05:55:16.651Z,76.90
2017-09-10T05:57:44.097Z,77.70
2017-09-10T06:00:11.536Z,77.70
2017-09-10T06:02:38.975Z,76.50
2017-09-10T06:05:06.417Z,76.50
2017-09-10T06:07:33.857Z,76.80
2017-09-10T06:10:01.313Z,77.10
2017-09-10T06:12:28.866Z,77.40
2017-09-10T06:14:56.461Z,74.70
2017-09-10T06:17:23.972Z,76.60
2017-09-10T06:19:51.414Z,76.10
2017-09-10T06:22:18.869Z,76.50
2017-09-10T06:24:47.085Z,76.60
2017-09-10T06:27:14.543Z,76.60
2017-09-10T06:29:41.993Z,74.20
2017-09-10T06:32:09.453Z,75.60
2017-09-10T06:34:37.774Z,75.60
2017-09-10T06:37:05.248Z,75.60
2017-09-10T06:39:32.671Z,75.70
2017-09-10T06:42:00.134Z,74.60
2017-09-10T06:44:27.574Z,75.20
2017-09-10T06:46:55.009Z,75.10
2017-09-10T06:49:22.445Z,74.30
2017-09-10T06:51:49.914Z,74.60
2017-09-10T06:54:18.112Z,73.80
2017-09-10T06:56:45.553Z,73.80
2017-09-10T06:59:13.000Z,74.80
2017-09-10T07:01:40.453Z,73.50
2017-09-10T07:04:07.888Z,73.30
2017-09-10T07:06:35.399Z,73.70
2017-09-10T07:09:03.618Z,74.30
2017-09-10T07:11:31.089Z,74.30
2017-09-10T07:13:59.284Z,73.40
2017-09-10T07:16:26.747Z,73.30
2017-09-10T07:18:54.188Z,73.30
2017-09-10T07:21:21.745Z,74.30
2017-09-10T07:23:49.183Z,74.20
2017-09-10T07:26:16.626Z,73.40
2017-09-10T07:28:44.068Z,73.40
2017-09-10T07:31:11.520Z,74.40
2017-09-10T07:33:38.956Z,74.00
2017-09-10T07:36:06.403Z,73.30
2017-09-10T07:38:33.903Z,75.00
2017-09-10T07:41:01.379Z,74.90
2017-09-10T07:43:28.834Z,74.00
2017-09-10T07:45:56.272Z,73.70
2017-09-10T07:48:23.704Z,72.70
2017-09-10T07:50:51.225Z,71.80
2017-09-10T07:53:18.681Z,72.50
2017-09-10T07:55:46.163Z,71.30
2017-09-10T07:58:13.588Z,72.70
2017-09-10T08:00:41.032Z,71.80
2017-09-10T08:03:08.485Z,72.10
2017-09-10T08:05:35.909Z,72.10
2017-09-10T08:08:03.379Z,72.10
2017-09-10T08:10:30.813Z,71.70
2017-09-10T08:12:58.288Z,72.40
2017-09-10T08:15:26.491Z,74.00
2017-09-10T08:17:53.924Z,73.30
2017-09-10T08:20:21.536Z,72.10
2017-09-10T08:22:49.754Z,71.00
2017-09-10T08:25:17.192Z,71.00
2017-09-10T08:27:44.629Z,69.50
2017-09-10T08:30:12.084Z,69.60
2017-09-10T08:32:39.529Z,70.20
2017-09-10T08:35:06.986Z,68.50
2017-09-10T08:37:34.433Z,68.50
2017-09-10T08:40:01.937Z,69.50
2017-09-10T08:42:29.372Z,69.50
2017-09-10T08:44:56.828Z,68.20
2017-09-10T08:47:24.285Z,68.40
2017-09-10T08:49:51.757Z,69.10
2017-09-10T08:52:19.192Z,69.30
2017-09-10T08:54:47.773Z,66.30
2017-09-10T08:57:15.980Z,67.70
2017-09-10T08:59:43.460Z,67.60
2017-09-10T09:02:10.904Z,66.30
2017-09-10T09:04:38.337Z,66.60
2017-09-10T09:07:06.653Z,66.30
2017-09-10T09:09:34.084Z,65.40
2017-09-10T09:12:02.297Z,65.20
2017-09-10T09:14:29.740Z,65.00
2017-09-10T09:16:57.209Z,65.40
2017-09-10T09:19:25.421Z,65.70
2017-09-10T09:21:52.898Z,65.50
2017-09-10T09:24:20.336Z,63.00
2017-09-10T09:26:47.796Z,62.40
2017-09-10T09:29:15.231Z,62.30
2017-09-10T09:31:43.474Z,60.70
2017-09-10T09:34:10.905Z,60.90
2017-09-10T09:36:38.352Z,60.10
2017-09-10T09:39:05.789Z,61.70
2017-09-10T09:41:33.318Z,59.40
2017-09-10T09:44:00.751Z,61.50
2017-09-10T09:46:28.185Z,59.40
2017-09-10T09:48:55.746Z,59.00
2017-09-10T09:51:23.174Z,59.20
2017-09-10T09:53:50.633Z,59.90
2017-09-10T09:56:18.064Z,60.00
2017-09-10T09:58:45.502Z,59.40
2017-09-10T10:01:12.975Z,59.60
2017-09-10T10:03:40.433Z,59.60
2017-09-10T10:06:07.858Z,61.10
2017-09-10T10:08:35.355Z,60.00
2017-09-10T10:11:03.569Z,59.30
2017-09-10T10:13:31.006Z,59.20
2017-09-10T10:15:58.448Z,58.90
2017-09-10T10:18:25.904Z,58.30
2017-09-10T10:20:53.440Z,58.20
2017-09-10T10:23:20.857Z,59.10
2017-09-10T10:25:48.301Z,59.70
2017-09-10T10:28:15.770Z,57.60
2017-09-10T10:30:43.217Z,59.30
2017-09-10T10:33:10.680Z,57.80
2017-09-10T10:35:38.225Z,58.20
2017-09-10T10:38:05.675Z,58.20
2017-09-10T10:40:33.285Z,57.90
2017-09-10T10:43:00.704Z,57.50
2017-09-10T10:45:28.145Z,58.00
2017-09-10T10:47:55.586Z,59.80
2017-09-10T10:50:23.023Z,59.20
2017-09-10T10:52:51.215Z,59.50
2017-09-10T10:55:18.653Z,58.40
2017-09-10T10:57:46.093Z,57.70
2017-09-10T11:00:13.539Z,58.20
2017-09-10T11:02:41.024Z,56.50
2017-09-10T11:05:08.504Z,57.40
2017-09-10T11:07:36.860Z,55.40
2017-09-10T11:10:04.297Z,56.20
2017-09-10T11:12:31.737Z,55.70
2017-09-10T11:14:59.180Z,55.10
2017-09-10T11:17:26.616Z,55.30
2017-09-10T11:19:54.825Z,53.90
2017-09-10T11:22:22.284Z,53.90
2017-09-10T11:24:49.842Z,54.70
2017-09-10T11:27:17.269Z,55.20
2017-09-10T11:29:44.817Z,53.30
2017-09-10T11:32:12.269Z,54.90
2017-09-10T11:34:39.725Z,54.70
2017-09-10T11:37:07.920Z,55.20
2017-09-10T11:39:37.034Z,53.00
2017-09-10T11:42:04.468Z,52.90
2017-09-10T11:44:31.922Z,55.00
2017-09-10T11:46:59.380Z,52.80
2017-09-10T11:49:26.832Z,52.50
2017-09-10T11:51:55.085Z,54.20
2017-09-10T11:54:22.552Z,54.10
2017-09-10T11:56:50.757Z,54.90
2017-09-10T11:59:18.201Z,54.70
2017-09-10T12:01:45.665Z,54.90
2017-09-10T12:04:13.115Z,54.00
2017-09-10T12:06:40.572Z,54.70
2017-09-10T12:09:08.959Z,52.30
2017-09-10T12:11:36.409Z,52.10
2017-09-10T12:14:03.852Z,52.20
2017-09-10T12:16:31.300Z,52.60
2017-09-10T12:18:58.748Z,52.30
2017-09-10T12:21:26.197Z,52.40
2017-09-10T12:23:53.638Z,52.10
2017-09-10T12:26:21.078Z,53.00
2017-09-10T12:28:48.517Z,51.90
2017-09-10T12:31:16.003Z,52.20
2017-09-10T12:33:43.439Z,52.80
2017-09-10T12:36:10.877Z,53.70
2017-09-10T12:38:38.329Z,52.90
2017-09-10T12:41:05.889Z,53.60
2017-09-10T12:43:34.106Z,53.20
2017-09-10T12:46:01.545Z,53.20
2017-09-10T12:48:28.983Z,55.00
2017-09-10T12:50:56.433Z,53.40
2017-09-10T12:53:23.894Z,54.30
2017-09-10T12:55:51.327Z,54.00
2017-09-10T12:58:18.775Z,54.20
2017-09-10T13:00:46.222Z,54.80
2017-09-10T13:03:13.679Z,56.00
2017-09-10T13:05:41.117Z,53.90
2017-09-10T13:08:08.560Z,54.50
2017-09-10T13:10:35.988Z,53.10
2017-09-10T13:13:03.445Z,53.00
2017-09-10T13:15:30.901Z,54.80
2017-09-10T13:17:59.116Z,54.80
2017-09-10T13:20:26.545Z,54.80
2017-09-10T13:22:53.988Z,54.30
2017-09-10T13:25:21.437Z,53.50
2017-09-10T13:27:48.893Z,52.60
2017-09-10T13:30:16.337Z,53.20
2017-09-10T13:32:43.913Z,54.30
2017-09-10T13:35:11.353Z,53.30
2017-09-10T13:37:38.808Z,53.10
2017-09-10T13:40:07.005Z,53.70
2017-09-10T13:42:34.441Z,53.90
2017-09-10T13:45:01.876Z,54.40
2017-09-10T13:47:29.316Z,54.60
2017-09-10T13:49:56.766Z,55.70
2017-09-10T13:52:24.270Z,54.50
2017-09-10T13:54:51.730Z,55.10
2017-09-10T13:57:19.980Z,55.30
2017-09-10T13:59:47.411Z,55.20
2017-09-10T14:02:14.904Z,55.10
2017-09-10T14:04:42.350Z,56.30
2017-09-10T14:07:09.843Z,56.70
2017-09-10T14:09:37.276Z,56.20
2017-09-10T14:12:04.732Z,57.10
2017-09-10T14:14:32.728Z,57.10
2017-09-10T14:17:00.188Z,57.10
2017-09-10T14:19:27.680Z,57.80
2017-09-10T14:21:55.114Z,57.80
2017-09-10T14:24:22.568Z,57.80
2017-09-10T14:26:50.008Z,57.80
2017-09-10T14:29:18.228Z,58.00
2017-09-10T14:31:45.708Z,58.00
2017-09-10T14:34:13.278Z,58.30
2017-09-10T14:36:40.808Z,58.50
2017-09-10T14:39:08.253Z,58.40
2017-09-10T14:41:36.455Z,59.60
2017-09-10T14:44:03.932Z,59.50
2017-09-10T14:46:31.372Z,58.80
2017-09-10T14:48:58.927Z,58.70
2017-09-10T14:51:26.361Z,59.00
2017-09-10T14:53:53.820Z,58.70
2017-09-10T14:56:22.037Z,59.30
2017-09-10T14:58:49.506Z,59.30
2017-09-10T15:01:16.937Z,59.30
2017-09-10T15:03:44.392Z,60.50
2017-09-10T15:06:11.847Z,59.90
2017-09-10T15:08:39.393Z,59.90
2017-09-10T15:11:06.821Z,59.50
2017-09-10T15:13:34.268Z,59.40
2017-09-10T15:16:01.709Z,58.40
2017-09-10T15:18:29.152Z,58.60
2017-09-10T15:20:56.600Z,58.80
2017-09-10T15:23:24.060Z,59.40
2017-09-10T15:25:52.264Z,59.10
2017-09-10T15:28:19.793Z,59.10
2017-09-10T15:30:47.229Z,59.00
2017-09-10T15:33:14.726Z,59.60
2017-09-10T15:35:42.176Z,58.50
2017-09-10T15:38:09.858Z,58.80
2017-09-10T15:40:38.059Z,59.90
2017-09-10T15:43:05.513Z,59.80
2017-09-10T15:45:32.955Z,59.00
2017-09-10T15:48:00.405Z,58.90
2017-09-10T15:50:27.842Z,59.20
2017-09-10T15:52:55.306Z,60.50
2017-09-10T15:55:23.501Z,60.50
2017-09-10T15:57:50.948Z,60.50
2017-09-10T16:00:18.380Z,60.20
2017-09-10T16:02:45.828Z,61.00
2017-09-10T16:05:13.277Z,60.90
2017-09-10T16:07:40.967Z,60.70
2017-09-10T16:10:08.419Z,60.00
2017-09-10T16:12:35.849Z,59.80
2017-09-10T16:15:03.317Z,58.70
2017-09-10T16:17:31.541Z,60.50
2017-09-10T16:19:59.033Z,59.90
2017-09-10T16:22:27.239Z,59.70
2017-09-10T16:24:54.680Z,59.00
2017-09-10T16:27:22.120Z,60.10
2017-09-10T16:29:49.570Z,59.80
2017-09-10T16:32:17.016Z,59.30
2017-09-10T16:34:44.467Z,59.30
2017-09-10T16:37:11.889Z,59.50
2017-09-10T16:39:39.333Z,58.40
2017-09-10T16:42:06.773Z,58.00
2017-09-10T16:44:34.220Z,58.80
2017-09-10T16:47:01.689Z,59.80
2017-09-10T16:49:29.161Z,59.70
2017-09-10T16:51:57.360Z,58.90
2017-09-10T16:54:24.820Z,58.80
2017-09-10T16:56:52.315Z,58.90
2017-09-10T16:59:19.769Z,58.50
2017-09-10T17:01:47.215Z,58.50
2017-09-10T17:04:14.651Z,58.70
2017-09-10T17:06:42.082Z,58.70
2017-09-10T17:09:10.289Z,59.10
2017-09-10T17:11:37.724Z,59.10
2017-09-10T17:14:05.177Z,60.00
2017-09-10T17:16:32.715Z,60.30
2017-09-10T17:19:00.159Z,60.40
2017-09-10T17:21:27.597Z,61.20
2017-09-10T17:23:55.061Z,61.60
2017-09-10T17:26:22.485Z,62.10
2017-09-10T17:28:49.941Z,61.80
2017-09-10T17:31:17.376Z,62.30
2017-09-10T17:33:44.829Z,63.00
2017-09-10T17:36:12.289Z,63.30
2017-09-10T17:38:39.782Z,62.90
2017-09-10T17:41:07.211Z,62.90
2017-09-10T17:43:34.715Z,64.00
2017-09-10T17:46:02.161Z,64.50
2017-09-10T17:48:29.598Z,64.90
2017-09-10T17:50:57.032Z,65.80
2017-09-10T17:53:24.739Z,66.20
2017-09-10T17:55:52.170Z,67.30
2017-09-10T17:58:19.631Z,68.70
2017-09-10T18:00:47.060Z,69.60
2017-09-10T18:03:14.521Z,69.80
2017-09-10T18:05:41.977Z,69.50
2017-09-10T18:08:09.842Z,70.10
2017-09-10T18:10:37.304Z,70.40
2017-09-10T18:13:04.725Z,70.50
2017-09-10T18:15:32.188Z,70.40
2017-09-10T18:17:59.641Z,70.50
2017-09-10T18:20:27.860Z,70.80
2017-09-10T18:22:55.385Z,70.80
2017-09-10T18:25:23.050Z,71.10
2017-09-10T18:27:50.509Z,71.30
2017-09-10T18:30:17.964Z,72.10
2017-09-10T18:32:45.400Z,72.20
2017-09-10T18:35:12.848Z,72.40
2017-09-10T18:37:40.361Z,72.90
2017-09-10T18:40:07.794Z,73.80
2017-09-10T18:42:35.241Z,73.30
2017-09-10T18:45:02.705Z,73.20
2017-09-10T18:47:30.176Z,73.50
2017-09-10T18:49:57.622Z,73.30
2017-09-10T18:52:25.818Z,74.60
2017-09-10T18:54:53.270Z,74.60
2017-09-10T18:57:20.769Z,74.50
2017-09-10T18:59:48.985Z,74.30
2017-09-10T19:02:16.457Z,74.30
2017-09-10T19:04:43.904Z,74.10
2017-09-10T19:07:11.349Z,74.10
2017-09-10T19:09:39.593Z,74.00
2017-09-10T19:12:07.050Z,73.90
2017-09-10T19:14:34.606Z,73.80
2017-09-10T19:17:02.811Z,73.50
2017-09-10T19:19:30.340Z,73.50
2017-09-10T19:21:57.817Z,73.30
2017-09-10T19:24:25.352Z,73.60
2017-09-10T19:26:52.810Z,73.40
2017-09-10T19:29:20.268Z,73.60
2017-09-10T19:31:47.696Z,73.50
2017-09-10T19:34:15.141Z,73.40
2017-09-10T19:36:43.492Z,73.50
2017-09-10T19:39:10.940Z,72.90
2017-09-10T19:41:38.381Z,73.20
2017-09-10T19:44:05.826Z,72.10
2017-09-10T19:46:33.253Z,72.10
2017-09-10T19:49:00.699Z,72.30
2017-09-10T19:51:28.137Z,72.50
2017-09-10T19:53:55.606Z,72.00
2017-09-10T19:56:23.049Z,72.00
2017-09-10T19:58:50.505Z,71.90
2017-09-10T20:01:18.704Z,72.70
2017-09-10T20:03:46.227Z,71.90
2017-09-10T20:06:14.435Z,71.80
2017-09-10T20:08:41.884Z,71.80
2017-09-10T20:11:09.341Z,71.70
2017-09-10T20:13:36.783Z,72.00
2017-09-10T20:16:04.224Z,72.70
2017-09-10T20:18:31.677Z,72.90
2017-09-10T20:20:59.141Z,73.10
2017-09-10T20:23:27.360Z,73.10
2017-09-10T20:25:54.793Z,73.10
2017-09-10T20:28:22.227Z,72.80
2017-09-10T20:30:49.703Z,73.10
2017-09-10T20:33:17.154Z,72.70
2017-09-10T20:35:44.610Z,72.10
2017-09-10T20:38:12.858Z,72.60
2017-09-10T20:40:40.302Z,72.50
2017-09-10T20:43:07.728Z,72.80
2017-09-10T20:45:35.167Z,72.10
2017-09-10T20:48:02.618Z,72.40
2017-09-10T20:50:30.067Z,72.70
2017-09-10T20:52:57.505Z,72.70
2017-09-10T20:55:24.965Z,72.50
2017-09-10T20:57:53.265Z,73.20
2017-09-10T21:00:20.753Z,73.00
2017-09-10T21:02:48.214Z,73.20
2017-09-10T21:05:15.653Z,73.30
2017-09-10T21:07:43.902Z,73.80
2017-09-10T21:10:11.456Z,73.80
2017-09-10T21:12:38.901Z,73.00
2017-09-10T21:15:07.119Z,73.70
2017-09-10T21:17:34.561Z,73.70
2017-09-10T21:20:02.006Z,73.80
2017-09-10T21:22:29.457Z,73.50
2017-09-10T21:24:56.912Z,73.70
2017-09-10T21:27:24.359Z,73.60
2017-09-10T21:29:51.802Z,73.50
2017-09-10T21:32:20.069Z,73.50
2017-09-10T21:34:48.283Z,73.40
2017-09-10T21:37:15.726Z,73.40
2017-09-10T21:39:43.169Z,73.70
2017-09-10T21:42:10.600Z,73.30
2017-09-10T21:44:38.040Z,73.50
2017-09-10T21:47:05.471Z,73.60
2017-09-10T21:49:32.943Z,74.50
2017-09-10T21:52:00.377Z,73.90
2017-09-10T21:54:27.829Z,74.10
2017-09-10T21:56:55.278Z,74.10
2017-09-10T21:59:22.720Z,74.10
2017-09-10T22:01:50.165Z,73.90
2017-09-10T22:04:17.634Z,74.00
2017-09-10T22:06:45.065Z,73.80
2017-09-10T22:09:12.613Z,73.80
2017-09-10T22:11:40.152Z,74.20
2017-09-10T22:14:07.588Z,74.60
2017-09-10T22:16:35.046Z,74.80
2017-09-10T22:19:02.577Z,75.00
2017-09-10T22:21:30.024Z,74.80
2017-09-10T22:23:57.464Z,74.70
2017-09-10T22:26:24.908Z,74.80
2017-09-10T22:28:52.361Z,74.90
2017-09-10T22:31:19.801Z,74.80
2017-09-10T22:33:47.242Z,74.90
2017-09-10T22:36:14.685Z,74.70
2017-09-10T22:38:42.126Z,74.80
2017-09-10T22:41:09.576Z,75.10
2017-09-10T22:43:37.006Z,75.70
2017-09-10T22:46:04.449Z,75.60
2017-09-10T22:48:31.884Z,76.00
2017-09-10T22:50:59.324Z,75.80
2017-09-10T22:53:26.776Z,76.20
2017-09-10T22:55:54.259Z,76.10
2017-09-10T22:58:21.692Z,76.20
2017-09-10T23:00:49.143Z,76.20
2017-09-10T23:03:16.585Z,76.20
2017-09-10T23:05:44.042Z,76.10
2017-09-10T23:08:11.560Z,76.50
2017-09-10T23:10:39.774Z,76.20
2017-09-10T23:13:07.214Z,76.20
2017-09-10T23:15:34.657Z,76.30
2017-09-10T23:18:02.094Z,76.30
2017-09-10T23:20:29.543Z,76.20
2017-09-10T23:22:56.984Z,76.10
2017-09-10T23:25:25.416Z,76.10
2017-09-10T23:27:52.840Z,76.00
2017-09-10T23:30:21.048Z,76.00
2017-09-10T23:32:48.487Z,75.90
2017-09-10T23:35:15.937Z,76.10
2017-09-10T23:37:43.368Z,76.30
2017-09-10T23:40:10.817Z,76.20
2017-09-10T23:42:38.288Z,76.30
2017-09-10T23:45:05.793Z,76.20
2017-09-10T23:47:33.234Z,76.40
2017-09-10T23:50:00.673Z,76.50
2017-09-10T23:52:28.108Z,76.70
2017-09-10T23:54:55.552Z,77.00
2017-09-10T23:57:23.042Z,77.10
2017-09-10T23:59:50.593Z,77.60
